Time;durP1;ratioP1;P1;durP2;ratioP2;P2;SDS_P1;SDS_P2;PMS_P1;PMS_P2;Temp;Humidity;BMP_temperature;BMP_pressure;BME280_temperature;BME280_humidity;BME280_pressure;Samples;Min_cycle;Max_cycle;Signal;HPM_P1;HPM_P2
2021/06/06 00:00:21;;;;;;;5.03;2.55;;;;;;;16.77;57.75;102043.13;5027547;28;20056;-73
2021/06/06 00:02:51;;;;;;;8.32;2.95;;;;;;;17.01;62.34;102035.16;5014563;28;20049;-73
2021/06/06 00:05:19;;;;;;;6.85;3.42;;;;;;;17.14;59.82;102038.94;5014313;28;20046;-73
2021/06/06 00:07:46;;;;;;;6.80;3.75;;;;;;;17.00;64.63;102036.28;5012490;28;20041;-74
2021/06/06 00:10:15;;;;;;;13.00;4.97;;;;;;;17.27;62.79;102035.16;5029566;28;20524;-74
2021/06/06 00:12:42;;;;;;;12.80;5.35;;;;;;;16.95;65.74;102022.50;5045342;28;20058;-74
2021/06/06 00:15:13;;;;;;;9.27;5.78;;;;;;;16.99;65.71;102029.06;5029392;28;20052;-75
2021/06/06 00:17:40;;;;;;;15.75;6.28;;;;;;;16.59;65.84;102030.28;5030839;28;20057;-72
2021/06/06 00:20:10;;;;;;;9.75;6.18;;;;;;;16.50;66.48;102038.59;5030719;28;20065;-73
2021/06/06 00:22:38;;;;;;;13.52;5.95;;;;;;;16.34;68.99;102044.84;5025151;28;20050;-73
2021/06/06 00:25:09;;;;;;;9.52;5.80;;;;;;;16.18;67.64;102046.41;5032360;28;20060;-72
2021/06/06 00:27:36;;;;;;;9.55;6.07;;;;;;;16.03;68.32;102041.25;5013431;28;20045;-75
2021/06/06 00:30:08;;;;;;;11.18;6.00;;;;;;;16.01;67.68;102037.97;5032197;28;20480;-71
2021/06/06 00:32:36;;;;;;;10.45;5.78;;;;;;;15.66;68.35;102043.28;5031813;28;20401;-71
2021/06/06 00:35:05;;;;;;;10.43;6.07;;;;;;;15.37;69.60;102040.09;5048596;28;20053;-73
2021/06/06 00:37:33;;;;;;;9.93;5.22;;;;;;;15.33;69.77;102044.63;5049727;28;20396;-72
2021/06/06 00:40:05;;;;;;;9.93;5.97;;;;;;;15.35;70.97;102038.75;5051796;28;20053;-74
2021/06/06 00:42:33;;;;;;;10.50;5.75;;;;;;;15.84;70.98;102023.97;5039838;28;20315;-72
2021/06/06 00:45:04;;;;;;;;;;;;;;;15.69;69.46;102039.06;5030698;28;20053;-73
2021/06/06 00:47:34;;;;;;;9.30;4.63;;;;;;;15.56;68.76;102037.16;5030383;28;19921;-74
2021/06/06 00:50:07;;;;;;;;;;;;;;;15.45;69.38;102033.81;5030433;28;20056;-73
2021/06/06 00:52:37;;;;;;;7.93;5.25;;;;;;;15.51;69.37;102027.00;5030243;28;20068;-75
2021/06/06 00:55:07;;;;;;;10.00;4.70;;;;;;;15.43;68.69;102022.19;4994084;28;20061;-74
2021/06/06 00:57:36;;;;;;;9.02;4.78;;;;;;;15.56;68.28;102026.06;5009941;28;20065;-74
2021/06/06 01:00:21;;;;;;;10.15;5.00;;;;;;;15.72;68.48;102022.59;5028163;28;20100;-74
2021/06/06 01:02:51;;;;;;;7.60;4.50;;;;;;;16.03;68.43;102019.84;5014374;28;20049;-72
2021/06/06 01:05:35;;;;;;;10.68;4.32;;;;;;;16.39;67.61;102014.13;5028557;28;20046;-73
2021/06/06 01:08:09;;;;;;;7.18;4.50;;;;;;;16.44;66.13;102014.78;5027470;28;20054;-71
2021/06/06 01:10:41;;;;;;;12.25;4.10;;;;;;;16.55;66.90;102012.56;4995469;28;20056;-75
2021/06/06 01:13:22;;;;;;;9.32;4.57;;;;;;;16.89;65.63;102016.28;4994798;28;20102;-73
2021/06/06 01:15:58;;;;;;;6.90;3.88;;;;;;;16.30;65.96;102016.84;4995297;28;20041;-74
2021/06/06 01:18:32;;;;;;;7.07;4.10;;;;;;;16.48;64.15;102017.78;5010626;28;20057;-73
2021/06/06 01:25:36;;;;;;;9.63;4.22;;;;;;;15.99;66.67;102018.81;5012386;28;20403;-74
2021/06/06 01:28:13;;;;;;;7.63;4.38;;;;;;;15.80;66.27;102018.22;4995677;28;20390;-74
2021/06/06 01:30:46;;;;;;;10.38;4.30;;;;;;;15.89;67.76;102010.75;5011025;28;20041;-74
2021/06/06 01:33:21;;;;;;;8.60;4.32;;;;;;;15.66;66.49;102007.19;4994533;28;20057;-73
2021/06/06 01:35:54;;;;;;;8.15;3.75;;;;;;;15.98;68.99;102005.25;5027573;28;20038;-74
2021/06/06 01:42:52;;;;;;;8.70;4.18;;;;;;;15.75;66.82;102010.84;5012028;28;20049;-76
2021/06/06 01:45:27;;;;;;;6.75;4.03;;;;;;;15.99;66.64;102006.91;4994665;28;20152;-72
2021/06/06 01:48:01;;;;;;;7.63;3.95;;;;;;;15.82;69.87;102007.63;5010812;28;20046;-73
2021/06/06 01:50:36;;;;;;;6.70;3.90;;;;;;;16.26;67.00;102009.50;5027078;28;20042;-73
2021/06/06 01:57:28;;;;;;;8.38;3.83;;;;;;;15.86;65.30;102002.25;5012225;28;20042;-74
2021/06/06 02:00:09;;;;;;;6.60;3.88;;;;;;;16.17;68.05;102001.13;5011413;28;20484;-74
2021/06/06 02:02:46;;;;;;;10.77;4.13;;;;;;;15.73;66.93;101996.44;5013572;28;20052;-73
2021/06/06 02:05:21;;;;;;;8.32;3.65;;;;;;;16.09;67.45;101993.53;5014412;28;20109;-72
2021/06/06 02:07:52;;;;;;;7.97;4.00;;;;;;;16.08;63.57;101991.91;5015764;28;20057;-74
2021/06/06 02:10:23;;;;;;;8.30;3.60;;;;;;;15.30;65.88;101986.13;4998460;28;20050;-74
2021/06/06 02:12:59;;;;;;;7.07;3.38;;;;;;;15.16;65.22;101986.19;5015911;28;20042;-74
2021/06/06 02:15:34;;;;;;;6.68;3.65;;;;;;;15.21;68.40;101988.00;4998593;28;20434;-75
2021/06/06 02:18:29;;;;;;;6.70;3.10;;;;;;;15.96;66.76;101986.13;5013227;28;20046;-74
2021/06/06 02:20:59;;;;;;;7.20;3.20;;;;;;;15.20;64.48;101981.63;4982224;28;20061;-75
2021/06/06 02:23:33;;;;;;;6.38;3.80;;;;;;;15.18;66.43;101989.47;5030581;28;20488;-72
2021/06/06 02:26:08;;;;;;;8.93;3.55;;;;;;;15.10;66.66;101984.63;5030750;28;20061;-73
2021/06/06 02:28:41;;;;;;;6.95;3.00;;;;;;;15.26;66.21;101983.16;5014258;28;20042;-72
2021/06/06 02:31:25;;;;;;;9.75;3.78;;;;;;;15.11;66.51;101977.97;4997788;28;20046;-73
2021/06/06 02:34:01;;;;;;;7.28;3.13;;;;;;;15.03;65.78;101978.69;5014276;28;20480;-74
2021/06/06 02:36:35;;;;;;;7.03;3.13;;;;;;;15.23;68.68;101981.00;4982779;28;20050;-73
2021/06/06 02:39:12;;;;;;;5.78;3.05;;;;;;;15.36;66.96;101974.56;5030410;28;20082;-74
2021/06/06 02:41:51;;;;;;;8.52;3.67;;;;;;;14.92;65.40;101968.16;4998655;28;20049;-74
2021/06/06 02:44:26;;;;;;;6.88;3.45;;;;;;;14.63;68.11;101977.66;5013331;28;20045;-72
2021/06/06 02:47:04;;;;;;;7.15;3.80;;;;;;;14.58;67.48;101963.91;4999040;28;20130;-74
2021/06/06 02:49:42;;;;;;;7.47;3.53;;;;;;;14.47;67.67;101976.31;4998793;28;20049;-74
2021/06/06 02:56:57;;;;;;;8.75;3.78;;;;;;;14.85;68.07;101963.03;5031595;28;20054;-73
2021/06/06 02:59:33;;;;;;;7.57;3.78;;;;;;;15.21;68.55;101966.63;5015077;28;20053;-74
2021/06/06 03:02:09;;;;;;;6.65;3.13;;;;;;;15.13;68.16;101964.59;5014569;28;20050;-74
2021/06/06 03:04:38;;;;;;;8.30;3.67;;;;;;;14.72;67.55;101963.03;5013653;28;20061;-72
2021/06/06 03:11:40;;;;;;;7.43;3.67;;;;;;;14.80;66.70;101965.94;5014678;28;20049;-74
2021/06/06 03:14:13;;;;;;;7.57;3.75;;;;;;;14.81;67.18;101956.47;5012538;28;20050;-74
2021/06/06 03:17:08;;;;;;;7.65;4.00;;;;;;;14.47;67.92;101958.91;5029721;28;20112;-74
2021/06/06 03:19:39;;;;;;;11.90;3.92;;;;;;;14.33;68.70;101960.84;5014620;28;20112;-74
2021/06/06 03:22:11;;;;;;;7.57;3.65;;;;;;;14.91;69.72;101953.47;4997463;28;20042;-74
2021/06/06 03:29:31;;;;;;;8.90;4.20;;;;;;;14.41;68.84;101954.56;5029279;28;20489;-73
2021/06/06 03:32:07;;;;;;;7.93;3.85;;;;;;;13.86;70.61;101955.66;4997723;28;20046;-74
2021/06/06 03:34:35;;;;;;;7.57;3.65;;;;;;;14.16;71.18;101966.13;5014502;28;20118;-71
2021/06/06 03:37:05;;;;;;;8.32;3.75;;;;;;;14.65;72.09;101955.16;4996054;28;20060;-73
2021/06/06 03:39:56;;;;;;;10.32;3.88;;;;;;;14.07;69.93;101957.72;5016964;28;20054;-74
2021/06/06 03:42:39;;;;;;;8.20;4.32;;;;;;;13.99;71.93;101961.19;5029501;28;20489;-74
2021/06/06 03:45:10;;;;;;;9.85;3.95;;;;;;;14.29;71.91;101955.09;5029161;28;20054;-72
2021/06/06 03:47:39;;;;;;;8.80;3.97;;;;;;;14.66;71.31;101945.72;5014183;28;20056;-73
2021/06/06 03:50:11;;;;;;;6.32;3.92;;;;;;;14.73;69.32;101945.28;5012935;28;20046;-71
2021/06/06 03:57:07;;;;;;;8.00;4.22;;;;;;;15.32;68.29;101943.03;5013988;28;20041;-74
2021/06/06 03:59:37;;;;;;;8.40;4.10;;;;;;;15.20;66.31;101950.28;5029011;28;20050;-73
2021/06/06 04:02:06;;;;;;;6.20;4.18;;;;;;;14.38;69.76;101950.44;5028939;28;20056;-72
2021/06/06 04:04:38;;;;;;;9.20;4.55;;;;;;;14.69;70.29;101939.53;5012084;28;20042;-72
2021/06/06 04:07:07;;;;;;;7.50;4.72;;;;;;;13.46;71.80;101938.63;5028541;28;20054;-73
2021/06/06 04:14:16;;;;;;;8.85;4.32;;;;;;;13.92;71.64;101943.34;5021056;28;20050;-73
2021/06/06 04:16:50;;;;;;;8.88;4.40;;;;;;;13.68;72.48;101943.50;5029736;28;20050;-74
2021/06/06 04:19:18;;;;;;;11.43;4.53;;;;;;;13.78;71.53;101937.78;5014235;28;20050;-73
2021/06/06 04:21:47;;;;;;;7.10;4.60;;;;;;;13.53;71.36;101947.34;5015214;28;20053;-73
2021/06/06 04:24:15;;;;;;;8.65;4.25;;;;;;;13.37;72.38;101956.25;5013268;28;20061;-74
2021/06/06 04:26:48;;;;;;;10.38;4.63;;;;;;;13.11;73.88;101950.25;5028882;28;20049;-73
2021/06/06 04:29:20;;;;;;;11.38;5.03;;;;;;;13.10;74.39;101956.94;5013722;28;20072;-74
2021/06/06 04:31:50;;;;;;;12.20;4.55;;;;;;;13.36;74.27;101949.88;4995591;28;20495;-74
2021/06/06 04:34:20;;;;;;;;;;;;;;;13.24;73.01;101948.69;5013759;28;20045;-72
2021/06/06 04:36:51;;;;;;;7.07;4.25;;;;;;;13.20;74.48;101956.78;5013258;28;19922;-73
2021/06/06 04:39:22;;;;;;;8.40;4.40;;;;;;;13.14;73.80;101955.22;5012491;28;20057;-73
2021/06/06 04:41:52;;;;;;;11.45;4.07;;;;;;;13.74;72.93;101952.56;5028494;28;20049;-73
2021/06/06 04:44:25;;;;;;;10.23;4.05;;;;;;;13.68;70.64;101960.13;5028485;28;20497;-74
2021/06/06 04:46:54;;;;;;;;;;;;;;;13.31;71.93;101960.19;5028409;28;20046;-74
2021/06/06 04:49:23;;;;;;;10.38;4.30;;;;;;;13.32;72.51;101953.53;5012461;28;19925;-73
2021/06/06 04:51:51;;;;;;;8.50;3.85;;;;;;;14.68;72.22;101960.91;4995245;28;20052;-73
2021/06/06 04:54:30;;;;;;;9.63;3.83;;;;;;;14.99;69.56;101966.59;5011205;28;20053;-73
2021/06/06 04:56:58;;;;;;;8.02;3.70;;;;;;;14.71;66.58;101953.94;5028426;28;20069;-74
2021/06/06 04:59:35;;;;;;;10.32;4.30;;;;;;;14.48;68.66;101958.59;5011599;28;20049;-73
2021/06/06 05:02:09;;;;;;;14.32;4.10;;;;;;;14.27;68.36;101959.28;5011935;28;20048;-71
2021/06/06 05:04:45;;;;;;;;;;;;;;;14.08;70.34;101953.81;5028505;28;20056;-71
2021/06/06 05:07:12;;;;;;;6.22;3.20;;;;;;;14.88;70.13;101958.81;4995765;28;20395;-70
2021/06/06 05:09:42;;;;;;;7.22;3.60;;;;;;;14.39;69.83;101956.81;5027506;28;20057;-72
2021/06/06 05:12:12;;;;;;;9.52;3.85;;;;;;;14.72;67.68;101951.94;5027875;28;20050;-73
2021/06/06 05:14:40;;;;;;;8.90;3.60;;;;;;;14.05;68.10;101959.16;5011143;28;20045;-74
2021/06/06 05:17:08;;;;;;;10.00;3.47;;;;;;;13.94;72.20;101955.75;5027630;28;20390;-73
2021/06/06 05:19:48;;;;;;;7.97;3.97;;;;;;;14.27;70.45;101962.06;5012553;28;20407;-73
2021/06/06 05:22:19;;;;;;;7.43;3.30;;;;;;;14.58;67.22;101951.97;4995109;28;20476;-74
2021/06/06 05:24:49;;;;;;;6.20;3.10;;;;;;;15.08;69.10;101950.81;5012731;28;20401;-74
2021/06/06 05:27:19;;;;;;;5.60;3.25;;;;;;;15.31;66.72;101946.13;5013192;28;20050;-74
2021/06/06 05:29:47;;;;;;;9.60;3.65;;;;;;;15.07;65.79;101945.59;5027643;28;20049;-73
2021/06/06 05:32:14;;;;;;;8.68;3.53;;;;;;;14.79;66.46;101950.41;5027660;28;20054;-73
2021/06/06 05:34:43;;;;;;;10.98;3.55;;;;;;;14.82;65.55;101954.53;5010421;28;20060;-73
2021/06/06 05:37:13;;;;;;;7.53;3.53;;;;;;;14.62;66.04;101947.47;5011946;28;20042;-74
2021/06/06 05:39:43;;;;;;;8.43;3.53;;;;;;;14.19;67.92;101957.22;5012177;28;20050;-75
2021/06/06 05:42:12;;;;;;;8.38;3.67;;;;;;;14.23;67.88;101961.00;5012551;28;20046;-74
2021/06/06 05:44:40;;;;;;;10.45;3.67;;;;;;;14.60;68.13;101952.50;5012637;28;20065;-73
2021/06/06 05:47:07;;;;;;;9.18;3.97;;;;;;;14.88;65.62;101954.09;5012504;28;20053;-74
2021/06/06 05:49:35;;;;;;;9.57;3.78;;;;;;;14.44;65.85;101952.00;4994677;28;20058;-74
2021/06/06 05:52:10;;;;;;;7.10;3.50;;;;;;;14.88;68.31;101956.03;5027217;28;20054;-72
2021/06/06 05:54:38;;;;;;;6.97;3.22;;;;;;;15.34;66.50;101951.84;5011913;28;20057;-73
2021/06/06 05:57:07;;;;;;;9.38;3.17;;;;;;;15.95;65.18;101953.09;5011100;28;20049;-72
2021/06/06 05:59:35;;;;;;;10.43;3.35;;;;;;;15.74;63.95;101958.38;5010892;28;20061;-73
2021/06/06 06:02:03;;;;;;;8.93;3.10;;;;;;;15.57;63.64;101956.31;5011993;28;20042;-73
2021/06/06 06:04:32;;;;;;;9.73;3.30;;;;;;;16.23;64.43;101955.34;5011582;28;20050;-74
2021/06/06 06:07:03;;;;;;;9.80;2.92;;;;;;;15.66;61.63;101965.53;5011920;28;20061;-73
2021/06/06 06:09:32;;;;;;;6.35;3.10;;;;;;;16.21;63.45;101970.72;5010998;28;20481;-71
2021/06/06 06:11:59;;;;;;;7.13;2.83;;;;;;;16.16;60.75;101963.31;5011903;28;20386;-73
2021/06/06 06:14:31;;;;;;;4.95;2.20;;;;;;;16.27;61.92;101961.06;5012238;28;20117;-74
2021/06/06 06:17:02;;;;;;;8.98;3.22;;;;;;;16.60;60.90;101959.56;5011781;28;20050;-73
2021/06/06 06:19:31;;;;;;;8.32;3.30;;;;;;;15.80;62.84;101957.09;4995063;28;20050;-71
2021/06/06 06:21:59;;;;;;;8.05;2.55;;;;;;;15.75;60.49;101951.69;5027157;28;20504;-73
2021/06/06 06:24:28;;;;;;;6.70;2.67;;;;;;;15.85;60.83;101954.19;5012282;28;20049;-72
2021/06/06 06:26:55;;;;;;;5.10;2.42;;;;;;;15.48;60.94;101955.41;5011702;28;20042;-73
2021/06/06 06:29:42;;;;;;;7.55;2.17;;;;;;;15.55;58.72;101964.13;5026867;28;20050;-71
2021/06/06 06:32:32;;;;;;;9.52;2.72;;;;;;;15.22;59.45;101973.00;4983364;28;20051;-72
2021/06/06 06:35:00;;;;;;;5.65;2.10;;;;;;;14.90;59.30;101982.34;4970853;28;20567;-72
2021/06/06 06:37:28;;;;;;;6.15;2.33;;;;;;;14.33;61.10;101985.78;4986914;28;20066;-73
2021/06/06 06:39:56;;;;;;;6.18;2.35;;;;;;;14.78;61.84;101973.75;4987026;28;20062;-72
2021/06/06 06:42:26;;;;;;;6.32;2.17;;;;;;;15.15;61.41;101975.41;4972149;28;20089;-74
2021/06/06 06:44:54;;;;;;;7.85;2.17;;;;;;;15.07;60.43;101976.94;4971249;28;20058;-74
2021/06/06 06:47:23;;;;;;;5.47;2.05;;;;;;;15.50;62.14;101968.97;4971352;28;20050;-74
2021/06/06 06:49:51;;;;;;;5.47;2.15;;;;;;;14.95;58.34;101975.84;4956600;28;20390;-73
2021/06/06 06:52:19;;;;;;;6.80;1.88;;;;;;;15.10;59.26;101981.88;4958305;28;20081;-73
2021/06/06 06:54:46;;;;;;;5.32;1.73;;;;;;;15.24;58.76;101968.75;4990120;28;20059;-73
2021/06/06 06:57:14;;;;;;;5.40;1.83;;;;;;;15.43;57.99;101974.19;4989455;28;20042;-74
2021/06/06 06:59:42;;;;;;;5.45;1.70;;;;;;;15.82;60.05;101967.88;4957254;28;20491;-74
2021/06/06 07:02:09;;;;;;;5.95;1.73;;;;;;;16.31;58.51;101965.69;4973773;28;20055;-73
2021/06/06 07:04:37;;;;;;;8.85;1.65;;;;;;;16.01;57.17;101968.47;4973849;28;20065;-73
2021/06/06 07:07:08;;;;;;;5.00;1.70;;;;;;;16.17;57.32;101964.97;4957899;28;20057;-74
2021/06/06 07:09:42;;;;;;;7.03;1.80;;;;;;;16.08;56.97;101974.41;4996288;28;20065;-73
2021/06/06 07:12:10;;;;;;;5.45;1.88;;;;;;;15.93;56.47;101964.53;5014508;28;20054;-72
2021/06/06 07:14:37;;;;;;;4.13;1.52;;;;;;;15.86;58.27;101971.69;5014432;28;20057;-76
2021/06/06 07:17:05;;;;;;;4.22;1.67;;;;;;;16.29;58.08;101975.47;5014583;28;20054;-74
2021/06/06 07:19:32;;;;;;;6.03;1.80;;;;;;;17.05;56.69;101977.66;5014218;28;20062;-76
2021/06/06 07:22:00;;;;;;;6.93;1.80;;;;;;;16.79;54.81;101969.28;5014001;28;20394;-75
2021/06/06 07:24:27;;;;;;;4.63;1.70;;;;;;;16.68;56.80;101976.28;5014929;28;20057;-76
2021/06/06 07:31:23;;;;;;;4.80;1.95;;;;;;;17.32;54.20;101966.22;5013983;28;20054;-75
2021/06/06 07:34:09;;;;;;;5.40;2.00;;;;;;;17.47;53.06;101971.28;5012904;28;20046;-76
2021/06/06 07:36:37;;;;;;;4.63;1.80;;;;;;;17.72;52.66;101964.88;5014348;28;20064;-74
2021/06/06 07:39:05;;;;;;;4.75;1.83;;;;;;;17.86;52.19;101967.47;5014143;28;20130;-74
2021/06/06 07:45:53;;;;;;;5.65;1.80;;;;;;;16.97;53.74;101967.34;5014592;28;20296;-72
2021/06/06 07:48:21;;;;;;;5.32;1.83;;;;;;;16.72;54.67;101968.94;4996707;28;20046;-73
2021/06/06 07:50:51;;;;;;;4.30;1.45;;;;;;;17.59;53.21;101967.84;5013861;28;20046;-74
2021/06/06 07:53:19;;;;;;;6.50;1.88;;;;;;;17.95;51.77;101959.91;4996633;28;20050;-75
2021/06/06 07:55:48;;;;;;;5.55;1.83;;;;;;;18.06;51.35;101968.72;5013550;28;20497;-73
2021/06/06 07:58:20;;;;;;;3.60;1.50;;;;;;;17.94;50.59;101963.81;5012010;28;20049;-73
2021/06/06 08:00:48;;;;;;;4.90;1.45;;;;;;;18.05;50.91;101967.06;4995219;28;20065;-74
2021/06/06 08:03:15;;;;;;;4.25;1.58;;;;;;;18.50;49.41;101971.00;5028863;28;20049;-74
2021/06/06 08:05:43;;;;;;;7.95;1.95;;;;;;;18.69;48.46;101968.63;5013650;28;20405;-75
2021/06/06 08:08:12;;;;;;;5.65;1.80;;;;;;;18.70;49.86;101965.50;5013818;28;20050;-75
2021/06/06 08:10:49;;;;;;;5.97;1.55;;;;;;;18.64;49.94;101966.00;5013774;28;20049;-76
2021/06/06 08:13:17;;;;;;;3.38;1.42;;;;;;;18.38;51.48;101962.50;5013631;28;20080;-75
2021/06/06 08:15:46;;;;;;;4.72;1.48;;;;;;;19.58;48.03;101946.53;5028666;28;20050;-75
2021/06/06 08:18:18;;;;;;;2.30;1.10;;;;;;;18.58;47.70;101962.59;5013307;28;20433;-75
2021/06/06 08:20:50;;;;;;;2.88;1.52;;;;;;;18.25;48.62;101963.56;5011642;28;20363;-75
2021/06/06 08:23:18;;;;;;;4.20;1.50;;;;;;;18.34;47.64;101953.97;5012076;28;20045;-74
2021/06/06 08:25:46;;;;;;;3.33;1.35;;;;;;;18.07;49.18;101960.00;5013588;28;20054;-76
2021/06/06 08:28:14;;;;;;;3.97;1.60;;;;;;;18.41;50.29;101959.09;5013899;28;20058;-75
2021/06/06 08:30:53;;;;;;;3.70;1.35;;;;;;;18.98;50.54;101954.63;5014264;28;20069;-75
2021/06/06 08:33:23;;;;;;;3.80;1.30;;;;;;;19.02;47.07;101952.78;5012664;28;20054;-76
2021/06/06 08:35:55;;;;;;;5.05;1.60;;;;;;;18.40;48.40;101952.69;4996111;28;20050;-74
2021/06/06 08:38:25;;;;;;;2.85;1.50;;;;;;;18.37;48.83;101946.91;5011712;28;20054;-74
2021/06/06 08:41:12;;;;;;;4.60;1.67;;;;;;;18.23;46.61;101957.50;5011752;28;20386;-74
2021/06/06 08:43:48;;;;;;;6.38;1.38;;;;;;;18.27;48.72;101948.09;4995798;28;20050;-75
2021/06/06 08:46:16;;;;;;;5.13;1.50;;;;;;;18.16;47.14;101946.03;5011868;28;20061;-72
2021/06/06 08:48:46;;;;;;;6.13;2.70;;;;;;;18.87;46.99;101943.03;5012873;28;20053;-74
2021/06/06 08:51:20;;;;;;;5.03;1.90;;;;;;;18.94;45.86;101945.28;5012925;28;20050;-74
2021/06/06 08:53:56;;;;;;;3.22;1.58;;;;;;;18.54;46.48;101947.69;4995315;28;20056;-74
2021/06/06 08:56:27;;;;;;;4.15;1.60;;;;;;;18.56;47.08;101953.75;5010672;28;20050;-74
2021/06/06 08:58:57;;;;;;;3.80;1.27;;;;;;;19.09;48.52;101939.06;5010756;28;20053;-74
2021/06/06 09:01:46;;;;;;;4.80;1.83;;;;;;;19.17;45.46;101934.56;5027759;28;20046;-74
2021/06/06 09:04:41;;;;;;;4.63;1.58;;;;;;;18.56;45.98;101944.56;5012662;28;20050;-72
2021/06/06 09:07:16;;;;;;;5.75;1.50;;;;;;;18.92;46.47;101939.22;5010067;28;20054;-73
2021/06/06 09:09:46;;;;;;;5.13;1.80;;;;;;;18.94;46.49;101936.91;5011171;28;20057;-73
2021/06/06 09:12:20;;;;;;;6.82;1.60;;;;;;;19.18;45.73;101928.63;5010713;28;20049;-74
2021/06/06 09:14:50;;;;;;;3.97;1.80;;;;;;;19.57;44.79;101928.16;5027839;28;20504;-73
2021/06/06 09:17:18;;;;;;;;;;;;;;;19.47;47.15;101925.78;5012985;28;20050;-72
2021/06/06 09:19:54;;;;;;;5.65;2.28;;;;;;;18.88;45.63;101932.69;5012499;28;19921;-77
2021/06/06 09:22:38;;;;;;;3.97;1.70;;;;;;;18.37;48.85;101930.19;5011312;28;20053;-74
2021/06/06 09:25:12;;;;;;;4.28;1.70;;;;;;;18.66;47.17;101927.41;5012586;28;20057;-73
2021/06/06 09:27:40;;;;;;;4.57;2.03;;;;;;;19.13;49.13;101917.69;5012196;28;20058;-74
2021/06/06 09:30:09;;;;;;;5.82;1.90;;;;;;;19.87;47.25;101926.84;5012677;28;20053;-74
2021/06/06 09:32:37;;;;;;;6.93;1.93;;;;;;;19.61;45.78;101931.06;5027282;28;20505;-72
2021/06/06 09:35:06;;;;;;;7.93;2.88;;;;;;;19.50;44.99;101938.25;5010674;28;20285;-74
2021/06/06 09:37:35;;;;;;;6.75;2.15;;;;;;;19.22;47.94;101918.44;5011857;28;20056;-73
2021/06/06 09:40:08;;;;;;;6.03;2.17;;;;;;;19.99;45.06;101929.66;5011142;28;20050;-75
2021/06/06 09:42:47;;;;;;;4.63;1.92;;;;;;;20.41;46.94;101918.25;4979009;28;20049;-74
2021/06/06 09:45:20;;;;;;;7.60;2.00;;;;;;;19.81;44.29;101931.00;5010471;28;20065;-73
2021/06/06 09:48:10;;;;;;;7.53;2.35;;;;;;;19.19;45.23;101924.72;5027136;28;20401;-75
2021/06/06 09:50:46;;;;;;;7.45;2.47;;;;;;;19.40;44.86;101930.28;5012008;28;20050;-73
2021/06/06 09:53:21;;;;;;;4.55;1.92;;;;;;;19.32;45.21;101922.81;4994755;28;20049;-75
2021/06/06 10:00:10;;;;;;;5.70;2.15;;;;;;;19.58;45.27;101928.97;4994124;28;20050;-73
2021/06/06 10:02:44;;;;;;;5.65;2.30;;;;;;;19.77;44.21;101924.47;5011766;28;20129;-74
2021/06/06 10:05:35;;;;;;;5.03;1.73;;;;;;;19.57;45.35;101933.72;5010489;28;20046;-73
2021/06/06 10:08:22;;;;;;;3.85;1.95;;;;;;;19.54;43.94;101931.63;5012284;28;20050;-75
2021/06/06 10:10:53;;;;;;;8.13;2.20;;;;;;;19.97;43.89;101939.53;5009634;28;20054;-75
2021/06/06 10:13:26;;;;;;;7.72;2.30;;;;;;;19.85;44.15;101936.72;5009988;28;20050;-75
2021/06/06 10:16:10;;;;;;;6.00;2.13;;;;;;;19.93;44.13;101928.22;5010694;28;20449;-75
2021/06/06 10:18:47;;;;;;;4.97;1.80;;;;;;;20.37;43.03;101926.53;5010529;28;20062;-76
2021/06/06 10:21:18;;;;;;;7.53;2.00;;;;;;;19.98;43.24;101928.00;5010679;28;20045;-74
2021/06/06 10:23:50;;;;;;;4.13;2.10;;;;;;;19.69;44.86;101921.75;5028415;28;20508;-76
2021/06/06 10:31:22;;;;;;;3.72;1.90;;;;;;;20.23;43.85;101925.25;5015992;28;20046;-74
2021/06/06 10:33:57;;;;;;;9.77;1.88;;;;;;;20.73;43.20;101923.69;4974416;28;20529;-76
2021/06/06 10:36:25;;;;;;;;;;;;;;;21.18;42.60;101923.50;4974796;28;20074;-72
2021/06/06 10:38:53;;;;;;;4.85;1.98;;;;;;;20.88;42.33;101924.97;4981135;28;20305;-76
2021/06/06 10:46:09;;;;;;;5.20;2.70;;;;;;;20.83;43.11;101922.41;4974678;28;20046;-78
2021/06/06 10:48:42;;;;;;;5.57;2.35;;;;;;;20.95;43.03;101920.41;4974554;28;20050;-80
2021/06/06 10:51:47;;;;;;;5.10;2.33;;;;;;;21.15;43.13;101927.81;4973996;28;20153;-76
2021/06/06 10:54:43;;;;;;;6.28;1.90;;;;;;;20.11;45.25;101929.66;4974280;28;20166;-77
2021/06/06 10:57:29;;;;;;;5.93;2.25;;;;;;;20.36;46.08;101916.53;4958086;28;20063;-78
2021/06/06 11:00:01;;;;;;;6.97;2.30;;;;;;;20.12;46.03;101922.06;4973304;28;20047;-79
2021/06/06 11:02:39;;;;;;;5.75;2.40;;;;;;;20.98;46.32;101908.50;4973935;28;20071;-78
2021/06/06 11:05:22;;;;;;;7.13;2.00;;;;;;;21.39;43.95;101912.09;4957869;28;20042;-46
2021/06/06 11:07:50;;;;;;;6.45;2.10;;;;;;;21.98;45.36;101907.31;4973965;28;20101;-50
2021/06/06 11:10:20;;;;;;;4.90;2.03;;;;;;;21.96;43.30;101904.88;5007693;28;20389;-54
2021/06/06 11:12:50;;;;;;;6.88;2.38;;;;;;;21.74;42.55;101901.84;5029190;28;20064;-47
2021/06/06 11:15:29;;;;;;;;;;;;;;;22.50;43.30;101895.78;5014137;28;20367;-53
2021/06/06 11:18:16;;;;;;;4.10;2.00;;;;;;;22.33;41.48;101883.75;5014873;28;19922;-55
2021/06/06 11:21:02;;;;;;;5.38;2.15;;;;;;;21.97;41.60;101892.47;5014814;28;20065;-52
2021/06/06 11:23:35;;;;;;;7.65;2.05;;;;;;;21.85;42.29;101894.53;5015064;28;20485;-50
2021/06/06 11:26:20;;;;;;;4.13;2.00;;;;;;;22.51;43.95;101889.00;5014553;28;20492;-51
2021/06/06 11:28:50;;;;;;;14.65;5.35;;;;;;;22.93;41.84;101881.53;5012627;28;20046;-59
2021/06/06 11:31:27;;;;;;;6.37;2.60;;;;;;;22.34;43.16;101896.63;5014522;28;20049;-54
2021/06/06 11:34:02;;;;;;;15.98;6.60;;;;;;;22.74;44.94;101890.75;5014408;28;20046;-51
2021/06/06 11:36:41;;;;;;;9.73;4.85;;;;;;;22.42;42.35;101886.34;5012202;28;20072;-54
2021/06/06 11:39:40;;;;;;;9.02;4.00;;;;;;;22.23;44.56;101873.09;5013225;28;20046;-49
2021/06/06 11:46:21;;;;;;;6.22;2.35;;;;;;;21.74;44.42;101880.22;5012393;28;20057;-56
2021/06/06 11:48:57;;;;;;;7.18;2.67;;;;;;;22.29;42.43;101865.19;5014000;28;20505;-52
2021/06/06 11:51:38;;;;;;;6.10;2.45;;;;;;;22.72;42.69;101853.78;5014270;28;20160;-50
2021/06/06 11:54:15;;;;;;;8.80;3.95;;;;;;;22.94;41.42;101866.31;5012888;28;20068;-53
2021/06/06 11:56:44;;;;;;;6.28;2.40;;;;;;;22.70;42.79;101872.22;5012759;28;20073;-48
2021/06/06 11:59:23;;;;;;;5.47;2.83;;;;;;;23.10;42.06;101853.78;5012217;28;20049;-50
2021/06/06 12:01:59;;;;;;;4.15;1.83;;;;;;;22.44;41.64;101860.75;5012176;28;20046;-48
2021/06/06 12:04:34;;;;;;;6.18;1.90;;;;;;;22.54;42.50;101852.59;5029300;28;20056;-54
2021/06/06 12:07:18;;;;;;;4.40;2.15;;;;;;;22.76;42.26;101843.44;5013985;28;20054;-48
2021/06/06 12:09:48;;;;;;;6.97;2.10;;;;;;;22.98;40.82;101847.53;5013953;28;20050;-52
2021/06/06 12:12:24;;;;;;;9.68;2.42;;;;;;;22.65;40.61;101848.00;5014267;28;20054;-57
2021/06/06 12:15:17;;;;;;;5.32;2.00;;;;;;;22.41;41.69;101848.25;5012432;28;20069;-54
2021/06/06 12:17:45;;;;;;;4.70;2.50;;;;;;;22.04;42.32;101849.75;5013213;28;20481;-47
2021/06/06 12:20:19;;;;;;;3.75;1.77;;;;;;;22.22;41.70;101839.78;5012841;28;20066;-43
2021/06/06 12:22:47;;;;;;;4.68;1.85;;;;;;;22.07;41.68;101838.59;5013412;28;20064;-50
2021/06/06 12:25:14;;;;;;;4.65;1.83;;;;;;;21.78;43.78;101836.28;5028454;28;20050;-53
2021/06/06 12:32:30;;;;;;;4.65;1.92;;;;;;;22.66;41.61;101846.03;5030554;28;20061;-59
2021/06/06 12:35:07;;;;;;;4.22;1.77;;;;;;;22.65;40.99;101835.97;5030937;28;20076;-44
2021/06/06 12:37:35;;;;;;;3.97;2.10;;;;;;;22.64;40.16;101834.34;5014013;28;20052;-49
2021/06/06 12:40:03;;;;;;;6.28;1.75;;;;;;;22.47;40.43;101834.72;5013998;28;20492;-44
2021/06/06 12:42:31;;;;;;;4.93;1.70;;;;;;;22.46;41.04;101841.50;5029986;28;20057;-51
2021/06/06 12:49:38;;;;;;;3.72;1.60;;;;;;;22.88;39.44;101831.25;5030397;28;20076;-48
2021/06/06 12:52:15;;;;;;;;;;;;;;;22.94;39.88;101829.78;5030320;28;20421;-51
2021/06/06 12:54:46;;;;;;;5.72;1.73;;;;;;;22.74;40.43;101823.34;5014183;28;19928;-50
2021/06/06 12:57:18;;;;;;;5.43;1.73;;;;;;;22.79;40.25;101819.41;5014679;28;20052;-43
2021/06/06 12:59:47;;;;;;;3.40;1.75;;;;;;;22.91;40.23;101816.47;5029438;28;20057;-47
2021/06/06 13:02:23;;;;;;;3.05;1.70;;;;;;;22.73;40.30;101820.91;5016196;28;20054;-46
2021/06/06 13:05:12;;;;;;;4.05;1.80;;;;;;;23.07;39.78;101817.19;5011019;28;20133;-53